createdAt,value
2016-09-12T00:00:28.817Z,-92
2016-09-12T00:01:28.858Z,-93
2016-09-12T00:02:29.145Z,-92
2016-09-12T00:03:28.883Z,-92
2016-09-12T00:04:28.944Z,-92
2016-09-12T00:05:29.150Z,-92
2016-09-12T00:06:28.763Z,-93
2016-09-12T00:07:28.937Z,-93
2016-09-12T00:08:29.044Z,-92
2016-09-12T00:09:28.948Z,-92
2016-09-12T00:10:28.934Z,-92
2016-09-12T00:11:28.955Z,-92
2016-09-12T00:12:29.005Z,-92
2016-09-12T00:13:28.930Z,-93
2016-09-12T00:14:29.157Z,-91
2016-09-12T00:15:29.037Z,-93
2016-09-12T00:16:29.002Z,-93
2016-09-12T00:17:29.166Z,-92
2016-09-12T00:18:29.267Z,-93
2016-09-12T00:19:29.058Z,-92
2016-09-12T00:20:29.258Z,-91
2016-09-12T00:21:28.866Z,-92
2016-09-12T00:22:28.853Z,-92
2016-09-12T00:23:29.278Z,-93
2016-09-12T00:24:28.933Z,-92
2016-09-12T00:25:28.947Z,-92
2016-09-12T00:26:28.954Z,-92
2016-09-12T00:27:28.980Z,-92
2016-09-12T00:28:29.213Z,-91
2016-09-12T00:29:29.353Z,-92
2016-09-12T00:30:29.156Z,-92
2016-09-12T00:31:29.253Z,-92
2016-09-12T00:32:29.133Z,-92
2016-09-12T00:33:29.113Z,-93
2016-09-12T00:34:28.979Z,-92
2016-09-12T00:35:29.094Z,-92
2016-09-12T00:36:28.981Z,-91
2016-09-12T00:37:29.159Z,-92
2016-09-12T00:38:29.082Z,-93
2016-09-12T00:39:28.820Z,-92
2016-09-12T00:40:28.927Z,-92
2016-09-12T00:41:29.026Z,-93
2016-09-12T00:42:29.204Z,-91
2016-09-12T00:43:29.038Z,-92
2016-09-12T00:44:28.956Z,-92
2016-09-12T00:45:28.893Z,-92
2016-09-12T00:46:29.239Z,-92
2016-09-12T00:47:29.141Z,-92
2016-09-12T00:48:29.009Z,-93
2016-09-12T00:49:29.234Z,-92
2016-09-12T00:50:29.247Z,-89
2016-09-12T00:51:28.954Z,-90
2016-09-12T00:52:28.944Z,-91
2016-09-12T00:53:29.038Z,-92
2016-09-12T00:54:28.881Z,-92
2016-09-12T00:55:28.948Z,-91
2016-09-12T00:56:28.918Z,-93
2016-09-12T00:57:28.992Z,-92
2016-09-12T00:58:29.079Z,-92
2016-09-12T00:59:28.946Z,-92
2016-09-12T01:00:29.545Z,-93
2016-09-12T01:01:29.125Z,-92
2016-09-12T01:02:28.889Z,-92
2016-09-12T01:03:28.978Z,-92
2016-09-12T01:04:29.129Z,-92
2016-09-12T01:05:29.685Z,-91
2016-09-12T01:06:29.025Z,-92
2016-09-12T01:07:28.910Z,-92
2016-09-12T01:08:29.282Z,-92
2016-09-12T01:09:29.010Z,-92
2016-09-12T01:10:29.052Z,-92
2016-09-12T01:11:28.994Z,-92
2016-09-12T01:12:29.053Z,-92
2016-09-12T01:13:28.903Z,-92
2016-09-12T01:14:29.106Z,-91
2016-09-12T01:15:28.880Z,-92
2016-09-12T01:16:28.970Z,-92
2016-09-12T01:17:28.950Z,-92
2016-09-12T01:18:28.974Z,-92
2016-09-12T01:19:29.172Z,-92
2016-09-12T01:20:28.994Z,-93
2016-09-12T01:21:29.093Z,-92
2016-09-12T01:22:28.958Z,-93
2016-09-12T01:23:29.001Z,-91
2016-09-12T01:24:29.158Z,-92
2016-09-12T01:25:29.107Z,-91
2016-09-12T01:26:28.947Z,-92
2016-09-12T01:27:28.827Z,-92
2016-09-12T01:28:29.101Z,-92
2016-09-12T01:29:29.000Z,-93
2016-09-12T01:30:29.028Z,-92
2016-09-12T01:31:28.945Z,-92
2016-09-12T01:32:29.178Z,-92
2016-09-12T01:33:29.055Z,-93
2016-09-12T01:34:29.351Z,-92
2016-09-12T01:35:29.063Z,-93
2016-09-12T01:36:29.151Z,-91
2016-09-12T01:37:29.121Z,-92
2016-09-12T01:38:29.123Z,-92
2016-09-12T01:39:29.315Z,-92
2016-09-12T01:40:29.006Z,-91
2016-09-12T01:41:29.616Z,-92
2016-09-12T01:42:29.125Z,-92
2016-09-12T01:43:29.227Z,-92
2016-09-12T01:44:29.126Z,-92
2016-09-12T01:45:28.953Z,-91
2016-09-12T01:46:29.123Z,-92
2016-09-12T01:47:29.922Z,-91
2016-09-12T01:48:28.879Z,-91
2016-09-12T01:49:29.047Z,-92
2016-09-12T01:50:29.084Z,-92
2016-09-12T01:51:29.161Z,-91
2016-09-12T01:52:29.099Z,-92
2016-09-12T01:53:29.087Z,-92
2016-09-12T01:54:29.382Z,-91
2016-09-12T01:55:29.108Z,-90
2016-09-12T01:56:29.123Z,-93
2016-09-12T01:57:29.158Z,-91
2016-09-12T01:58:29.004Z,-91
2016-09-12T01:59:29.233Z,-92
2016-09-12T02:00:29.029Z,-92
2016-09-12T02:01:29.120Z,-92
2016-09-12T02:02:29.338Z,-92
2016-09-12T02:03:29.086Z,-92
2016-09-12T02:04:29.036Z,-92
2016-09-12T02:05:29.150Z,-90
2016-09-12T02:06:29.217Z,-93
2016-09-12T02:07:29.046Z,-92
2016-09-12T02:08:29.134Z,-92
2016-09-12T02:09:29.385Z,-93
2016-09-12T02:10:29.292Z,-92
2016-09-12T02:11:29.077Z,-92
2016-09-12T02:12:29.030Z,-92
2016-09-12T02:13:29.086Z,-91
2016-09-12T02:14:28.976Z,-92
2016-09-12T02:15:28.987Z,-92
2016-09-12T02:16:29.063Z,-93
2016-09-12T02:17:28.997Z,-92
2016-09-12T02:18:28.998Z,-92
2016-09-12T02:19:29.084Z,-92
2016-09-12T02:20:29.067Z,-93
2016-09-12T02:21:28.935Z,-93
2016-09-12T02:22:29.036Z,-91
2016-09-12T02:23:29.503Z,-92
2016-09-12T02:24:29.140Z,-92
2016-09-12T02:25:29.184Z,-92
2016-09-12T02:26:29.116Z,-92
2016-09-12T02:27:29.037Z,-92
2016-09-12T02:28:29.187Z,-91
2016-09-12T02:29:29.149Z,-92
2016-09-12T02:30:29.068Z,-92
2016-09-12T02:31:29.042Z,-91
2016-09-12T02:32:29.216Z,-93
2016-09-12T02:33:28.991Z,-92
2016-09-12T02:34:29.074Z,-92
2016-09-12T02:35:29.359Z,-92
2016-09-12T02:36:29.130Z,-92
2016-09-12T02:37:29.117Z,-92
2016-09-12T02:38:29.133Z,-92
2016-09-12T02:39:29.056Z,-91
2016-09-12T02:40:29.139Z,-93
2016-09-12T02:41:29.037Z,-92
2016-09-12T02:42:29.114Z,-92
2016-09-12T02:43:29.161Z,-92
2016-09-12T02:44:29.056Z,-92
2016-09-12T02:45:29.172Z,-93
2016-09-12T02:46:29.186Z,-92
2016-09-12T02:47:29.126Z,-92
2016-09-12T02:48:29.076Z,-92
2016-09-12T02:49:29.273Z,-92
2016-09-12T02:50:29.133Z,-91
2016-09-12T02:51:29.247Z,-92
2016-09-12T02:52:29.353Z,-92
2016-09-12T02:53:29.236Z,-93
2016-09-12T02:54:29.152Z,-92
2016-09-12T02:55:29.090Z,-92
2016-09-12T02:56:29.040Z,-89
2016-09-12T02:57:29.183Z,-91
2016-09-12T02:58:29.100Z,-93
2016-09-12T02:59:29.084Z,-93
2016-09-12T03:00:29.497Z,-92
2016-09-12T03:01:29.204Z,-93
2016-09-12T03:02:29.186Z,-92
2016-09-12T03:03:29.190Z,-92
2016-09-12T03:04:29.399Z,-92
2016-09-12T03:05:29.188Z,-91
2016-09-12T03:06:29.161Z,-92
2016-09-12T03:07:29.085Z,-92
2016-09-12T03:08:29.167Z,-92
2016-09-12T03:09:29.265Z,-92
2016-09-12T03:10:29.099Z,-92
2016-09-12T03:11:29.286Z,-92
2016-09-12T03:12:29.306Z,-91
2016-09-12T03:13:29.219Z,-92
2016-09-12T03:14:29.094Z,-91
2016-09-12T03:15:29.106Z,-92
2016-09-12T03:16:29.243Z,-92
2016-09-12T03:17:29.312Z,-92
2016-09-12T03:18:29.160Z,-93
2016-09-12T03:19:29.209Z,-91
2016-09-12T03:20:29.385Z,-92
2016-09-12T03:21:29.199Z,-91
2016-09-12T03:22:29.219Z,-92
2016-09-12T03:23:29.322Z,-92
2016-09-12T03:24:29.145Z,-91
2016-09-12T03:25:29.293Z,-91
2016-09-12T03:26:29.155Z,-92
2016-09-12T03:27:29.058Z,-92
2016-09-12T03:28:29.244Z,-92
2016-09-12T03:29:29.211Z,-92
2016-09-12T03:30:29.210Z,-92
2016-09-12T03:31:29.180Z,-92
2016-09-12T03:32:29.303Z,-92
2016-09-12T03:33:29.178Z,-92
2016-09-12T03:34:29.508Z,-92
2016-09-12T03:35:29.491Z,-93
2016-09-12T03:36:29.681Z,-92
2016-09-12T03:37:29.147Z,-92
2016-09-12T03:38:29.177Z,-91
2016-09-12T03:39:29.258Z,-92
2016-09-12T03:40:29.277Z,-92
2016-09-12T03:41:29.166Z,-92
2016-09-12T03:42:29.251Z,-92
2016-09-12T03:43:29.330Z,-92
2016-09-12T03:44:29.313Z,-92
2016-09-12T03:45:29.217Z,-92
2016-09-12T03:46:29.326Z,-91
2016-09-12T03:47:29.054Z,-92
2016-09-12T03:48:29.261Z,-92
2016-09-12T03:49:29.275Z,-92
2016-09-12T03:50:29.253Z,-92
2016-09-12T03:51:29.238Z,-92
2016-09-12T03:52:29.322Z,-92
2016-09-12T03:53:29.203Z,-91
2016-09-12T03:54:29.252Z,-91
2016-09-12T03:55:29.463Z,-92
2016-09-12T03:56:29.464Z,-91
2016-09-12T03:57:29.268Z,-90
2016-09-12T03:58:29.103Z,-92
2016-09-12T03:59:29.232Z,-92
2016-09-12T04:00:29.337Z,-92
2016-09-12T04:01:29.234Z,-92
2016-09-12T04:02:29.559Z,-92
2016-09-12T04:03:29.170Z,-92
2016-09-12T04:04:29.223Z,-91
2016-09-12T04:05:29.505Z,-92
2016-09-12T04:06:29.255Z,-91
2016-09-12T04:07:29.334Z,-91
2016-09-12T04:08:29.413Z,-92
2016-09-12T04:09:29.505Z,-91
2016-09-12T04:10:29.767Z,-92
2016-09-12T04:11:29.276Z,-92
2016-09-12T04:12:29.896Z,-92
2016-09-12T04:13:29.314Z,-91
2016-09-12T04:14:29.453Z,-92
2016-09-12T04:15:29.646Z,-91
2016-09-12T04:16:30.058Z,-92
2016-09-12T04:17:31.369Z,-92
2016-09-12T04:18:29.313Z,-91
2016-09-12T04:19:29.212Z,-91
2016-09-12T04:20:29.486Z,-91
2016-09-12T04:21:29.347Z,-92
2016-09-12T04:22:29.364Z,-92
2016-09-12T04:23:29.156Z,-92
2016-09-12T04:24:29.286Z,-92
2016-09-12T04:25:29.250Z,-92
2016-09-12T04:26:29.233Z,-92
2016-09-12T04:27:29.289Z,-92
2016-09-12T04:28:29.230Z,-92
2016-09-12T04:29:29.520Z,-91
2016-09-12T04:30:29.629Z,-92
2016-09-12T04:31:29.208Z,-92
2016-09-12T04:32:29.183Z,-91
2016-09-12T04:33:30.597Z,-92
2016-09-12T04:34:29.270Z,-92
2016-09-12T04:35:30.704Z,-92
2016-09-12T04:36:29.275Z,-92
2016-09-12T04:37:29.413Z,-91
2016-09-12T04:38:29.488Z,-92
2016-09-12T04:39:29.355Z,-92
2016-09-12T04:40:30.109Z,-91
2016-09-12T04:41:29.472Z,-92
2016-09-12T04:42:29.569Z,-92
2016-09-12T04:43:29.183Z,-92
2016-09-12T04:44:29.427Z,-92
2016-09-12T04:45:29.285Z,-92
2016-09-12T04:46:29.293Z,-92
2016-09-12T04:47:29.339Z,-92
2016-09-12T04:48:29.148Z,-91
2016-09-12T04:49:29.260Z,-91
2016-09-12T04:50:29.289Z,-92
2016-09-12T04:51:29.435Z,-92
2016-09-12T04:52:29.345Z,-92
2016-09-12T04:53:29.373Z,-92
2016-09-12T04:54:29.267Z,-91
2016-09-12T04:55:29.299Z,-92
2016-09-12T04:56:29.325Z,-92
2016-09-12T04:57:29.379Z,-92
2016-09-12T04:58:29.302Z,-92
2016-09-12T04:59:29.569Z,-91
2016-09-12T05:00:29.513Z,-90
2016-09-12T05:01:29.317Z,-91
2016-09-12T05:02:29.397Z,-92
2016-09-12T05:03:29.261Z,-93
2016-09-12T05:04:29.344Z,-91
2016-09-12T05:05:29.332Z,-92
2016-09-12T05:06:29.508Z,-92
2016-09-12T05:07:29.275Z,-91
2016-09-12T05:08:29.531Z,-92
2016-09-12T05:09:29.436Z,-92
2016-09-12T05:10:29.669Z,-91
2016-09-12T05:11:29.327Z,-91
2016-09-12T05:12:29.360Z,-91
2016-09-12T05:13:29.405Z,-92
2016-09-12T05:14:29.458Z,-91
2016-09-12T05:15:29.593Z,-92
2016-09-12T05:16:29.398Z,-92
2016-09-12T05:17:29.954Z,-91
2016-09-12T05:18:29.428Z,-91
2016-09-12T05:19:29.355Z,-92
2016-09-12T05:20:30.388Z,-91
2016-09-12T05:21:29.404Z,-91
2016-09-12T05:22:29.395Z,-91
2016-09-12T05:23:29.288Z,-92
2016-09-12T05:24:29.326Z,-92
2016-09-12T05:25:29.270Z,-92
2016-09-12T05:26:29.363Z,-91
2016-09-12T05:27:29.602Z,-92
2016-09-12T05:28:29.374Z,-92
2016-09-12T05:29:29.361Z,-92
2016-09-12T05:30:29.376Z,-92
2016-09-12T05:31:29.325Z,-92
2016-09-12T05:32:29.343Z,-91
2016-09-12T05:33:29.434Z,-92
2016-09-12T05:34:29.452Z,-91
2016-09-12T05:35:31.020Z,-92
2016-09-12T05:36:29.303Z,-92
2016-09-12T05:37:29.450Z,-92
2016-09-12T05:38:29.386Z,-92
2016-09-12T05:39:29.283Z,-92
2016-09-12T05:40:29.349Z,-93
2016-09-12T05:41:29.430Z,-93
2016-09-12T05:42:29.300Z,-92
2016-09-12T05:43:29.501Z,-92
2016-09-12T05:44:29.514Z,-91
2016-09-12T05:45:30.882Z,-92
2016-09-12T05:46:29.703Z,-92
2016-09-12T05:47:29.510Z,-93
2016-09-12T05:48:29.458Z,-93
2016-09-12T05:49:30.054Z,-92
2016-09-12T05:50:29.479Z,-92
2016-09-12T05:51:29.491Z,-92
2016-09-12T05:52:29.447Z,-91
2016-09-12T05:53:29.791Z,-91
2016-09-12T05:54:29.749Z,-92
2016-09-12T05:55:29.738Z,-91
2016-09-12T05:56:30.125Z,-92
2016-09-12T05:57:30.446Z,-91
2016-09-12T05:58:29.847Z,-91
2016-09-12T05:59:29.682Z,-92
2016-09-12T06:00:29.469Z,-94
2016-09-12T06:01:29.642Z,-90
2016-09-12T06:02:29.405Z,-94
2016-09-12T06:03:29.555Z,-93
2016-09-12T06:04:30.320Z,-96
2016-09-12T06:05:29.743Z,-96
2016-09-12T06:06:29.686Z,-95
2016-09-12T06:07:29.572Z,-95
2016-09-12T06:08:29.578Z,-95
2016-09-12T06:09:51.300Z,-96
2016-09-12T06:10:31.500Z,-95
2016-09-12T06:11:29.967Z,-96
2016-09-12T06:12:30.227Z,-96
2016-09-12T06:13:33.190Z,-93
2016-09-12T06:14:35.227Z,-90
2016-09-12T06:15:30.618Z,-89
2016-09-12T06:16:32.538Z,-91
2016-09-12T06:17:30.375Z,-91
2016-09-12T06:18:29.741Z,-93
2016-09-12T06:19:31.503Z,-91
2016-09-12T06:20:54.961Z,-94
2016-09-12T06:21:33.636Z,-93
2016-09-12T06:24:32.571Z,-92
2016-09-12T06:24:40.121Z,-93
2016-09-12T06:25:39.497Z,-92
2016-09-12T06:26:39.644Z,-92
2016-09-12T06:27:39.452Z,-92
2016-09-12T06:28:39.577Z,-92
2016-09-12T06:29:39.481Z,-90
2016-09-12T06:30:39.593Z,-91
2016-09-12T06:31:39.579Z,-91
2016-09-12T06:32:39.902Z,-91
2016-09-12T06:33:39.518Z,-93
2016-09-12T06:34:39.527Z,-92
2016-09-12T06:35:39.577Z,-92
2016-09-12T06:36:39.528Z,-92
2016-09-12T06:37:39.439Z,-91
2016-09-12T06:38:39.458Z,-95
2016-09-12T06:39:39.776Z,-93
2016-09-12T06:40:55.783Z,-94
2016-09-12T06:42:29.433Z,-93
2016-09-12T12:48:30.972Z,-91
2016-09-12T12:49:31.020Z,-92
2016-09-12T12:50:31.152Z,-91
2016-09-12T12:51:31.020Z,-91
2016-09-12T12:52:31.029Z,-92
2016-09-12T12:53:35.947Z,-94
2016-09-12T12:54:30.993Z,-92
2016-09-12T12:55:31.104Z,-92
2016-09-12T12:56:31.114Z,-92
2016-09-12T12:57:31.074Z,-92
2016-09-12T12:58:31.044Z,-91
2016-09-12T12:59:30.945Z,-89
2016-09-12T13:00:30.939Z,-91
2016-09-12T13:01:31.041Z,-91
2016-09-12T13:02:30.999Z,-91
2016-09-12T13:03:31.153Z,-92
2016-09-12T13:04:31.026Z,-91
2016-09-12T13:05:31.005Z,-92
2016-09-12T13:06:31.014Z,-92
2016-09-12T13:07:30.965Z,-92
2016-09-12T13:08:31.025Z,-91
2016-09-12T13:09:31.039Z,-90
2016-09-12T13:10:31.026Z,-90
2016-09-12T13:11:30.944Z,-91
2016-09-12T13:12:31.005Z,-89
2016-09-12T13:13:30.924Z,-92
2016-09-12T13:14:31.028Z,-91
2016-09-12T13:15:30.968Z,-90
2016-09-12T13:16:31.149Z,-92
2016-09-12T13:17:30.906Z,-91
2016-09-12T13:18:31.050Z,-91
2016-09-12T13:19:30.953Z,-91
2016-09-12T13:20:31.084Z,-90
2016-09-12T13:21:31.008Z,-89
2016-09-12T13:22:31.149Z,-90
2016-09-12T13:23:31.067Z,-90
2016-09-12T13:24:31.021Z,-90
2016-09-12T13:25:31.070Z,-89
2016-09-12T13:26:31.033Z,-89
2016-09-12T13:27:31.774Z,-88
2016-09-12T13:28:31.082Z,-92
2016-09-12T13:29:31.049Z,-90
2016-09-12T13:30:31.103Z,-90
2016-09-12T13:31:31.006Z,-89
2016-09-12T13:32:31.130Z,-89
2016-09-12T13:33:31.157Z,-91
2016-09-12T13:34:31.045Z,-91
2016-09-12T13:35:31.070Z,-91
2016-09-12T13:36:31.216Z,-92
2016-09-12T13:37:31.199Z,-91
2016-09-12T13:38:31.692Z,-90
2016-09-12T13:39:30.978Z,-89
2016-09-12T13:40:31.092Z,-91
2016-09-12T13:41:31.367Z,-90
2016-09-12T13:42:32.001Z,-89
2016-09-12T13:43:31.225Z,-89
2016-09-12T13:44:31.626Z,-91
2016-09-12T13:45:31.434Z,-91
2016-09-12T13:46:32.266Z,-89
2016-09-12T13:47:31.718Z,-89
2016-09-12T13:48:32.817Z,-90
2016-09-12T13:49:31.384Z,-90
2016-09-12T13:50:31.923Z,-89
2016-09-12T13:51:33.057Z,-90
2016-09-12T13:52:33.048Z,-90
2016-09-12T13:53:32.688Z,-90
2016-09-12T13:54:32.607Z,-91
2016-09-12T13:55:32.260Z,-90
2016-09-12T13:56:33.066Z,-92
2016-09-12T13:57:32.364Z,-91
2016-09-12T13:58:32.677Z,-91
2016-09-12T13:59:32.392Z,-90
2016-09-12T14:00:32.432Z,-90
2016-09-12T14:01:32.876Z,-91
2016-09-12T14:02:32.870Z,-92
2016-09-12T14:03:33.577Z,-92
2016-09-12T14:04:32.549Z,-91
2016-09-12T14:05:32.377Z,-91
2016-09-12T14:06:31.142Z,-90
2016-09-12T14:07:31.139Z,-91
2016-09-12T14:08:31.273Z,-91
2016-09-12T14:09:31.054Z,-91
2016-09-12T14:10:31.046Z,-90
2016-09-12T14:11:31.216Z,-90
2016-09-12T14:12:31.208Z,-91
2016-09-12T14:13:31.213Z,-91
2016-09-12T14:14:31.665Z,-93
2016-09-12T14:15:36.031Z,-94
2016-09-12T14:16:34.120Z,-92
2016-09-12T14:17:31.973Z,-93
2016-09-12T14:18:31.265Z,-92
2016-09-12T14:19:31.183Z,-92
2016-09-12T14:20:31.205Z,-92
2016-09-12T14:21:31.147Z,-91
2016-09-12T14:22:31.221Z,-92
2016-09-12T14:23:31.284Z,-93
2016-09-12T14:24:31.005Z,-91
2016-09-12T14:25:31.157Z,-92
2016-09-12T14:26:31.727Z,-91
2016-09-12T14:27:31.169Z,-91
2016-09-12T14:28:31.127Z,-93
2016-09-12T14:29:31.172Z,-90
2016-09-12T14:30:31.244Z,-90
2016-09-12T14:31:31.323Z,-90
2016-09-12T14:32:31.295Z,-89
2016-09-12T14:33:31.347Z,-91
2016-09-12T14:34:31.382Z,-91
2016-09-12T14:35:31.848Z,-91
2016-09-12T14:36:31.827Z,-92
2016-09-12T14:37:32.402Z,-92
2016-09-12T14:38:31.996Z,-93
2016-09-12T14:39:31.264Z,-91
2016-09-12T14:40:31.302Z,-92
2016-09-12T14:41:31.287Z,-93
2016-09-12T14:42:31.219Z,-93
2016-09-12T14:43:31.248Z,-91
2016-09-12T14:44:31.250Z,-93
2016-09-12T14:45:31.152Z,-93
2016-09-12T14:46:31.211Z,-92
2016-09-12T14:47:31.243Z,-92
2016-09-12T14:48:31.404Z,-91
2016-09-12T14:49:31.275Z,-92
2016-09-12T14:50:31.305Z,-92
2016-09-12T14:51:31.272Z,-91
2016-09-12T14:52:31.370Z,-92
2016-09-12T14:53:31.208Z,-94
2016-09-12T14:54:31.316Z,-92
2016-09-12T14:55:31.239Z,-92
2016-09-12T14:56:31.310Z,-91
2016-09-12T14:57:31.302Z,-90
2016-09-12T14:58:31.820Z,-91
2016-09-12T14:59:31.395Z,-91
2016-09-12T15:00:31.129Z,-90
2016-09-12T15:01:31.274Z,-90
2016-09-12T15:02:31.440Z,-91
2016-09-12T15:03:31.216Z,-90
2016-09-12T15:04:31.187Z,-91
2016-09-12T15:05:31.328Z,-90
2016-09-12T15:06:31.371Z,-92
2016-09-12T15:07:31.249Z,-91
2016-09-12T15:08:31.325Z,-91
2016-09-12T15:09:31.296Z,-90
2016-09-12T15:10:31.198Z,-91
2016-09-12T15:11:31.366Z,-92
2016-09-12T15:12:31.350Z,-91
2016-09-12T15:13:31.246Z,-91
2016-09-12T15:14:31.261Z,-91
2016-09-12T15:15:31.401Z,-92
2016-09-12T15:16:31.378Z,-91
2016-09-12T15:17:31.417Z,-91
2016-09-12T15:18:31.130Z,-90
2016-09-12T15:19:31.304Z,-90
2016-09-12T15:20:31.165Z,-89
2016-09-12T15:21:31.430Z,-91
2016-09-12T15:22:31.207Z,-92
2016-09-12T15:23:31.231Z,-91
2016-09-12T15:24:31.162Z,-90
2016-09-12T15:25:31.195Z,-92
2016-09-12T15:26:31.244Z,-90
2016-09-12T15:27:31.240Z,-91
2016-09-12T15:28:31.322Z,-91
2016-09-12T15:29:31.172Z,-91
2016-09-12T15:30:31.395Z,-91
2016-09-12T15:31:31.171Z,-91
2016-09-12T15:32:31.249Z,-89
2016-09-12T15:33:31.329Z,-91
2016-09-12T15:34:31.187Z,-90
2016-09-12T15:35:31.303Z,-90
2016-09-12T15:36:31.222Z,-91
2016-09-12T15:37:31.339Z,-90
2016-09-12T15:38:31.356Z,-90
2016-09-12T15:39:31.275Z,-90
2016-09-12T15:40:31.270Z,-91
2016-09-12T15:41:31.322Z,-89
2016-09-12T15:42:31.201Z,-91
2016-09-12T15:43:31.345Z,-92
2016-09-12T15:44:31.286Z,-92
2016-09-12T15:45:31.439Z,-90
2016-09-12T15:46:31.133Z,-90
2016-09-12T15:47:31.349Z,-90
2016-09-12T15:48:31.275Z,-90
2016-09-12T15:49:31.421Z,-89
2016-09-12T15:50:31.333Z,-90
2016-09-12T15:51:31.295Z,-90
2016-09-12T15:52:31.360Z,-91
2016-09-12T15:53:31.296Z,-89
2016-09-12T15:54:31.375Z,-90
2016-09-12T15:55:31.167Z,-90
2016-09-12T15:56:31.371Z,-90
2016-09-12T15:57:31.314Z,-89
2016-09-12T15:58:31.381Z,-90
2016-09-12T15:59:31.362Z,-90
2016-09-12T16:00:31.271Z,-89
2016-09-12T16:01:31.435Z,-90
2016-09-12T16:02:31.445Z,-90
2016-09-12T16:03:31.523Z,-90
2016-09-12T16:04:31.444Z,-89
2016-09-12T16:05:31.404Z,-89
2016-09-12T16:06:31.378Z,-89
2016-09-12T16:07:31.459Z,-91
2016-09-12T16:08:31.419Z,-89
2016-09-12T16:09:31.379Z,-90
2016-09-12T16:10:31.439Z,-89
2016-09-12T16:11:31.303Z,-89
2016-09-12T16:12:31.356Z,-89
2016-09-12T16:13:31.329Z,-89
2016-09-12T16:14:31.347Z,-90
2016-09-12T16:15:31.282Z,-89
2016-09-12T16:16:31.389Z,-89
2016-09-12T16:17:31.335Z,-89
2016-09-12T16:18:31.358Z,-90
2016-09-12T16:19:31.258Z,-89
2016-09-12T16:20:31.364Z,-89
2016-09-12T16:21:31.517Z,-88
2016-09-12T16:22:31.510Z,-90
2016-09-12T16:23:31.374Z,-89
2016-09-12T16:24:31.397Z,-88
2016-09-12T16:25:31.388Z,-88
2016-09-12T16:26:31.270Z,-87
2016-09-12T16:27:31.310Z,-88
2016-09-12T16:28:31.501Z,-88
2016-09-12T16:29:31.391Z,-90
2016-09-12T16:30:31.526Z,-89
2016-09-12T16:31:31.411Z,-89
2016-09-12T16:32:31.221Z,-89
2016-09-12T16:33:31.362Z,-88
2016-09-12T16:34:31.443Z,-88
2016-09-12T16:35:31.306Z,-86
2016-09-12T16:36:31.372Z,-86
2016-09-12T16:37:31.360Z,-86
2016-09-12T16:38:31.367Z,-86
2016-09-12T16:39:31.297Z,-87
2016-09-12T16:40:31.285Z,-87
2016-09-12T16:41:31.210Z,-86
2016-09-12T16:42:31.295Z,-87
2016-09-12T16:43:31.393Z,-87
2016-09-12T16:44:31.345Z,-87
2016-09-12T16:45:31.473Z,-86
2016-09-12T16:46:31.249Z,-87
2016-09-12T16:47:31.288Z,-87
2016-09-12T16:48:31.346Z,-87
2016-09-12T16:49:31.546Z,-87
2016-09-12T16:50:31.316Z,-87
2016-09-12T16:51:31.440Z,-87
2016-09-12T16:52:31.358Z,-86
2016-09-12T16:53:31.455Z,-87
2016-09-12T16:54:31.416Z,-86
2016-09-12T16:55:31.346Z,-86
2016-09-12T16:56:31.386Z,-86
2016-09-12T16:57:31.436Z,-86
2016-09-12T16:58:31.391Z,-86
2016-09-12T16:59:31.430Z,-87
2016-09-12T17:00:31.337Z,-87
2016-09-12T17:01:32.248Z,-86
2016-09-12T17:02:31.354Z,-86
2016-09-12T17:03:31.443Z,-87
2016-09-12T17:04:31.401Z,-86
2016-09-12T17:05:31.391Z,-86
2016-09-12T17:06:31.449Z,-86
2016-09-12T17:07:31.411Z,-87
2016-09-12T17:08:31.455Z,-86
2016-09-12T17:09:31.418Z,-86
2016-09-12T17:10:31.248Z,-86
2016-09-12T17:11:31.296Z,-86
2016-09-12T17:12:31.467Z,-86
2016-09-12T17:13:31.333Z,-86
2016-09-12T17:14:31.377Z,-86
2016-09-12T17:15:31.418Z,-86
2016-09-12T17:16:31.370Z,-87
2016-09-12T17:17:31.305Z,-86
2016-09-12T17:18:31.451Z,-86
2016-09-12T17:19:31.350Z,-86
2016-09-12T17:20:31.339Z,-86
2016-09-12T17:21:31.393Z,-86
2016-09-12T17:22:31.349Z,-86
2016-09-12T17:23:31.390Z,-86
2016-09-12T17:24:31.426Z,-86
2016-09-12T17:25:31.398Z,-86
2016-09-12T17:26:31.432Z,-85
2016-09-12T17:27:31.407Z,-86
2016-09-12T17:28:31.437Z,-86
2016-09-12T17:29:31.362Z,-86
2016-09-12T17:30:31.358Z,-86
2016-09-12T17:31:31.434Z,-86
2016-09-12T17:32:31.409Z,-86
2016-09-12T17:33:31.444Z,-86
2016-09-12T17:34:31.546Z,-86
2016-09-12T17:35:31.444Z,-86
2016-09-12T17:36:31.385Z,-86
2016-09-12T17:37:31.343Z,-87
2016-09-12T17:38:31.407Z,-86
2016-09-12T17:39:31.419Z,-86
2016-09-12T17:40:31.421Z,-86
2016-09-12T17:41:31.424Z,-86
2016-09-12T17:42:31.501Z,-86
2016-09-12T17:43:31.432Z,-85
2016-09-12T17:44:31.388Z,-86
2016-09-12T17:45:31.370Z,-86
2016-09-12T17:46:31.548Z,-85
2016-09-12T17:47:31.378Z,-86
2016-09-12T17:48:31.500Z,-85
2016-09-12T17:49:31.533Z,-85
2016-09-12T17:50:31.418Z,-85
2016-09-12T17:51:31.349Z,-86
2016-09-12T17:52:31.614Z,-86
2016-09-12T17:53:31.421Z,-85
2016-09-12T17:54:31.473Z,-85
2016-09-12T17:55:31.358Z,-85
2016-09-12T17:56:31.441Z,-85
2016-09-12T17:57:31.440Z,-85
2016-09-12T17:58:31.366Z,-85
2016-09-12T17:59:31.356Z,-85
2016-09-12T18:00:31.372Z,-85
2016-09-12T18:01:31.423Z,-86
2016-09-12T18:02:31.481Z,-85
2016-09-12T18:03:31.472Z,-86
2016-09-12T18:04:31.468Z,-85
2016-09-12T18:05:31.440Z,-85
2016-09-12T18:06:31.498Z,-86
2016-09-12T18:07:31.535Z,-85
2016-09-12T18:08:31.537Z,-86
2016-09-12T18:09:31.470Z,-85
2016-09-12T18:10:31.384Z,-86
2016-09-12T18:11:31.495Z,-86
2016-09-12T18:12:31.361Z,-85
2016-09-12T18:13:31.570Z,-85
2016-09-12T18:14:31.416Z,-85
2016-09-12T18:15:31.516Z,-86
2016-09-12T18:16:31.463Z,-85
2016-09-12T18:17:31.434Z,-86
2016-09-12T18:18:31.450Z,-85
2016-09-12T18:19:31.471Z,-85
2016-09-12T18:20:31.522Z,-85
2016-09-12T18:21:31.561Z,-85
2016-09-12T18:22:31.436Z,-85
2016-09-12T18:23:31.507Z,-85
2016-09-12T18:24:31.352Z,-85
2016-09-12T18:25:31.442Z,-86
2016-09-12T18:26:31.408Z,-85
2016-09-12T18:27:31.447Z,-86
2016-09-12T18:28:31.452Z,-86
2016-09-12T18:29:31.456Z,-86
2016-09-12T18:30:31.513Z,-85
2016-09-12T18:31:31.452Z,-85
2016-09-12T18:32:31.611Z,-91
2016-09-12T18:33:31.362Z,-91
2016-09-12T18:34:31.434Z,-90
2016-09-12T18:35:31.572Z,-90
2016-09-12T18:36:31.462Z,-91
2016-09-12T18:37:31.605Z,-91
2016-09-12T18:38:31.694Z,-91
2016-09-12T18:39:31.592Z,-91
2016-09-12T18:40:31.447Z,-90
2016-09-12T18:41:31.585Z,-91
2016-09-12T18:42:31.574Z,-89
2016-09-12T18:43:31.576Z,-90
2016-09-12T18:44:31.445Z,-90
2016-09-12T18:45:31.553Z,-89
2016-09-12T18:46:31.512Z,-90
2016-09-12T18:47:31.610Z,-90
2016-09-12T18:48:31.383Z,-90
2016-09-12T18:49:31.933Z,-90
2016-09-12T18:50:31.798Z,-90
2016-09-12T18:51:31.440Z,-90
2016-09-12T18:52:31.525Z,-90
2016-09-12T18:53:31.455Z,-89
2016-09-12T18:54:31.418Z,-88
2016-09-12T18:55:31.550Z,-88
2016-09-12T18:56:31.613Z,-90
2016-09-12T18:57:31.493Z,-89
2016-09-12T18:58:31.505Z,-88
2016-09-12T18:59:31.455Z,-89
2016-09-12T19:00:31.642Z,-88
2016-09-12T19:01:31.490Z,-90
2016-09-12T19:02:31.653Z,-88
2016-09-12T19:03:31.573Z,-89
2016-09-12T19:04:31.562Z,-89
2016-09-12T19:05:31.562Z,-89
2016-09-12T19:06:32.566Z,-90
2016-09-12T19:07:31.556Z,-89
2016-09-12T19:08:31.459Z,-90
2016-09-12T19:09:31.683Z,-87
2016-09-12T19:10:31.503Z,-88
2016-09-12T19:11:31.520Z,-89
2016-09-12T19:12:31.644Z,-89
2016-09-12T19:13:31.608Z,-89
2016-09-12T19:14:31.603Z,-89
2016-09-12T19:15:31.524Z,-89
2016-09-12T19:16:31.573Z,-90
2016-09-12T19:17:31.606Z,-89
2016-09-12T19:18:31.422Z,-89
2016-09-12T19:19:31.668Z,-89
2016-09-12T19:20:31.580Z,-89
2016-09-12T19:21:31.750Z,-87
2016-09-12T19:22:31.552Z,-89
2016-09-12T19:23:31.577Z,-90
2016-09-12T19:24:31.648Z,-90
2016-09-12T19:25:31.512Z,-89
2016-09-12T19:26:31.624Z,-89
2016-09-12T19:27:31.756Z,-89
2016-09-12T19:28:31.467Z,-89
2016-09-12T19:29:31.547Z,-90
2016-09-12T19:30:31.549Z,-89
2016-09-12T19:31:31.652Z,-89
2016-09-12T19:32:31.542Z,-89
2016-09-12T19:33:31.644Z,-89
2016-09-12T19:34:31.463Z,-89
2016-09-12T19:35:31.566Z,-90
2016-09-12T19:36:31.678Z,-90
2016-09-12T19:37:31.773Z,-88
2016-09-12T19:38:31.505Z,-89
2016-09-12T19:39:31.590Z,-90
2016-09-12T19:40:31.654Z,-89
2016-09-12T19:41:31.585Z,-90
2016-09-12T19:42:31.490Z,-91
2016-09-12T19:43:31.602Z,-90
2016-09-12T19:44:31.569Z,-90
2016-09-12T19:45:31.542Z,-89
2016-09-12T19:46:31.545Z,-89
2016-09-12T19:47:31.646Z,-89
2016-09-12T19:48:31.617Z,-90
2016-09-12T19:49:31.587Z,-89
2016-09-12T19:50:31.723Z,-90
2016-09-12T19:51:31.532Z,-87
2016-09-12T19:52:31.622Z,-89
2016-09-12T19:53:31.478Z,-89